createdAt,value
2023-02-16T00:00:31.138Z,101909.03
2023-02-16T00:03:34.560Z,101909.50
2023-02-16T00:06:37.687Z,101911.63
2023-02-16T00:09:41.056Z,101910.53
2023-02-16T00:13:02.289Z,101908.09
2023-02-16T00:16:06.248Z,101908.69
2023-02-16T00:19:16.948Z,101904.56
2023-02-16T00:22:22.192Z,101899.62
2023-02-16T00:25:25.017Z,101893.50
2023-02-16T00:28:27.961Z,101897.28
2023-02-16T00:31:33.168Z,101895.94
2023-02-16T00:34:40.186Z,101890.19
2023-02-16T00:37:43.705Z,101890.66
2023-02-16T00:40:47.234Z,101888.56
2023-02-16T00:43:54.931Z,101884.72
2023-02-16T00:47:01.854Z,101893.88
2023-02-16T00:50:21.659Z,101892.09
2023-02-16T00:53:26.828Z,101888.81
2023-02-16T00:56:29.840Z,101879.66
2023-02-16T00:59:33.084Z,101874.25
2023-02-16T01:02:38.921Z,101875.88
2023-02-16T01:05:42.054Z,101876.38
2023-02-16T01:09:07.065Z,101876.59
2023-02-16T01:12:17.063Z,101870.13
2023-02-16T01:15:24.665Z,101871.44
2023-02-16T01:18:30.800Z,101867.66
2023-02-16T01:21:33.830Z,101869.44
2023-02-16T01:24:39.743Z,101868.75
2023-02-16T01:27:43.850Z,101864.50
2023-02-16T01:30:49.870Z,101862.50
2023-02-16T01:33:57.654Z,101866.16
2023-02-16T01:37:00.568Z,101856.50
2023-02-16T01:40:04.010Z,101854.03
2023-02-16T01:43:28.939Z,101854.50
2023-02-16T01:46:52.251Z,101850.16
2023-02-16T01:49:58.316Z,101848.03
2023-02-16T01:53:15.576Z,101840.66
2023-02-16T01:57:05.207Z,101839.00
2023-02-16T02:00:15.526Z,101842.16
2023-02-16T02:03:45.294Z,101842.28
2023-02-16T02:06:50.886Z,101837.09
2023-02-16T02:10:05.919Z,101833.09
2023-02-16T02:13:19.956Z,101826.53
2023-02-16T02:16:35.466Z,101819.94
2023-02-16T02:20:06.872Z,101812.91
2023-02-16T02:23:33.956Z,101811.03
2023-02-16T02:27:01.118Z,101812.66
2023-02-16T02:30:32.027Z,101815.59
2023-02-16T02:33:43.575Z,101813.34
2023-02-16T02:37:14.808Z,101815.72
2023-02-16T02:41:10.139Z,101809.25
2023-02-16T02:44:50.493Z,101811.59
2023-02-16T02:48:08.427Z,101811.16
2023-02-16T02:51:28.637Z,101809.94
2023-02-16T02:55:19.754Z,101810.78
2023-02-16T02:58:59.774Z,101818.28
2023-02-16T03:02:38.227Z,101812.06
2023-02-16T03:06:20.158Z,101811.22
2023-02-16T03:10:19.131Z,101813.13
2023-02-16T03:13:42.871Z,101811.47
2023-02-16T03:17:18.318Z,101810.66
2023-02-16T03:21:13.930Z,101818.28
2023-02-16T03:25:10.038Z,101809.37
2023-02-16T03:29:06.364Z,101807.25
2023-02-16T03:32:43.577Z,101795.97
2023-02-16T03:36:18.638Z,101800.66
2023-02-16T03:40:12.897Z,101798.31
2023-02-16T03:43:29.954Z,101793.50
2023-02-16T03:46:49.685Z,101783.63
2023-02-16T03:50:07.640Z,101796.78
2023-02-16T03:53:44.829Z,101797.00
2023-02-16T03:57:02.076Z,101797.56
2023-02-16T04:00:27.825Z,101790.91
2023-02-16T04:03:44.971Z,101793.50
2023-02-16T04:07:03.365Z,101797.66
2023-02-16T04:10:38.882Z,101791.75
2023-02-16T04:13:56.884Z,101799.53
2023-02-16T04:17:30.980Z,101797.88
2023-02-16T04:21:08.546Z,101789.19
2023-02-16T04:24:42.899Z,101784.59
2023-02-16T04:28:02.343Z,101781.66
2023-02-16T04:31:37.071Z,101788.69
2023-02-16T04:35:06.912Z,101789.50
2023-02-16T04:38:43.140Z,101787.75
2023-02-16T04:42:20.094Z,101795.97
2023-02-16T04:45:56.012Z,101790.59
2023-02-16T04:49:25.817Z,101799.87
2023-02-16T04:52:59.750Z,101801.62
2023-02-16T04:56:34.545Z,101799.41
2023-02-16T05:00:02.270Z,101796.44
2023-02-16T05:03:36.737Z,101797.62
2023-02-16T05:07:15.661Z,101791.28
2023-02-16T05:11:11.198Z,101795.28
2023-02-16T05:14:50.043Z,101794.59
2023-02-16T05:18:25.245Z,101790.09
2023-02-16T05:22:04.283Z,101792.22
2023-02-16T05:25:21.829Z,101789.25
2023-02-16T05:28:50.942Z,101795.47
2023-02-16T05:32:24.980Z,101792.66
2023-02-16T05:35:57.121Z,101796.16
2023-02-16T05:39:37.082Z,101791.75
2023-02-16T05:43:12.456Z,101787.97
2023-02-16T05:46:46.738Z,101789.75
2023-02-16T05:50:13.695Z,101790.34
2023-02-16T05:53:50.313Z,101790.22
2023-02-16T05:57:26.304Z,101787.28
2023-02-16T06:01:00.785Z,101795.63
2023-02-16T06:04:36.175Z,101797.88
2023-02-16T06:07:57.078Z,101800.78
2023-02-16T06:11:38.908Z,101790.81
2023-02-16T06:15:14.379Z,101788.00
2023-02-16T06:18:51.775Z,101787.28
2023-02-16T06:22:26.198Z,101790.47
2023-02-16T06:26:05.870Z,101798.94
2023-02-16T06:29:39.798Z,101799.03
2023-02-16T06:33:06.814Z,101793.16
2023-02-16T06:36:47.242Z,101789.84
2023-02-16T06:40:20.474Z,101789.59
2023-02-16T06:43:55.885Z,101794.34
2023-02-16T06:47:30.387Z,101788.19
2023-02-16T06:50:57.707Z,101784.41
2023-02-16T06:54:29.581Z,101788.84
2023-02-16T06:57:59.827Z,101786.69
2023-02-16T07:01:25.852Z,101784.09
2023-02-16T07:04:50.067Z,101774.72
2023-02-16T07:08:25.302Z,101778.34
2023-02-16T07:11:59.798Z,101780.53
2023-02-16T07:15:37.050Z,101779.50
2023-02-16T07:19:14.693Z,101783.38
2023-02-16T07:22:51.684Z,101777.03
2023-02-16T07:26:13.944Z,101775.87
2023-02-16T07:29:40.793Z,101782.00
2023-02-16T07:33:18.188Z,101777.88
2023-02-16T07:36:53.687Z,101783.44
2023-02-16T07:40:29.371Z,101778.94
2023-02-16T07:44:03.784Z,101778.34
2023-02-16T07:47:39.156Z,101778.50
2023-02-16T07:51:20.175Z,101776.53
2023-02-16T07:54:53.966Z,101773.94
2023-02-16T07:58:32.074Z,101769.44
2023-02-16T08:02:07.512Z,101769.19
2023-02-16T08:05:45.492Z,101776.59
2023-02-16T08:09:21.076Z,101779.59
2023-02-16T08:12:59.540Z,101784.62
2023-02-16T08:16:35.738Z,101780.44
2023-02-16T08:20:04.928Z,101789.16
2023-02-16T08:23:39.072Z,101780.94
2023-02-16T08:34:44.045Z,101786.03
2023-02-16T08:38:12.969Z,101787.62
2023-02-16T08:41:50.668Z,101789.06
2023-02-16T08:45:42.493Z,101799.00
2023-02-16T08:52:36.079Z,101797.00
2023-02-16T08:56:16.848Z,101788.03
2023-02-16T09:00:10.608Z,101791.16
2023-02-16T09:03:46.302Z,101794.19
2023-02-16T09:07:35.199Z,101785.19
2023-02-16T09:11:13.698Z,101789.28
2023-02-16T09:14:49.317Z,101779.69
2023-02-16T09:18:26.696Z,101778.31
2023-02-16T09:25:48.522Z,101786.41
2023-02-16T09:29:21.566Z,101781.78
2023-02-16T09:33:01.312Z,101779.22
2023-02-16T09:36:40.617Z,101781.44
2023-02-16T09:40:14.883Z,101785.78
2023-02-16T09:44:25.823Z,101783.88
2023-02-16T09:48:02.048Z,101784.81
2023-02-16T09:51:41.208Z,101780.22
2023-02-16T09:55:18.527Z,101776.47
2023-02-16T09:59:38.235Z,101766.03
2023-02-16T10:03:43.217Z,101773.38
2023-02-16T10:07:31.774Z,101773.13
2023-02-16T10:11:35.654Z,101778.00
2023-02-16T10:15:18.214Z,101774.78
2023-02-16T10:18:57.337Z,101772.72
2023-02-16T10:22:48.411Z,101767.16
2023-02-16T10:26:47.564Z,101763.09
2023-02-16T10:30:20.050Z,101759.16
2023-02-16T10:34:18.242Z,101767.12
2023-02-16T10:38:04.895Z,101752.44
2023-02-16T10:41:49.851Z,101760.16
2023-02-16T10:45:27.708Z,101747.88
2023-02-16T10:49:03.212Z,101751.44
2023-02-16T10:52:40.811Z,101745.44
2023-02-16T10:56:33.881Z,101740.62
2023-02-16T11:00:22.500Z,101729.84
2023-02-16T11:04:05.337Z,101725.91
2023-02-16T11:07:53.869Z,101723.72
2023-02-16T11:15:17.062Z,101721.06
2023-02-16T11:33:28.888Z,101681.44
2023-02-16T11:37:26.948Z,101679.00
2023-02-16T11:59:21.021Z,101647.69
2023-02-16T12:03:19.129Z,101643.69
2023-02-16T12:07:20.456Z,101622.69
2023-02-16T12:11:31.257Z,101630.25
2023-02-16T12:15:45.474Z,101625.84
2023-02-16T12:49:29.608Z,101572.50
2023-02-16T13:01:09.093Z,101552.00
2023-02-16T13:05:30.414Z,101549.75
2023-02-16T13:09:11.571Z,101538.37
2023-02-16T13:13:45.779Z,101541.28
2023-02-16T13:17:49.899Z,101534.13
2023-02-16T13:21:29.048Z,101526.19
2023-02-16T13:25:55.452Z,101519.19
2023-02-16T13:30:00.701Z,101513.97
2023-02-16T13:34:17.124Z,101497.19
2023-02-16T13:38:36.990Z,101492.59
2023-02-16T13:51:04.869Z,101483.97
2023-02-16T13:54:40.028Z,101485.47
2023-02-16T14:12:56.650Z,101491.00
2023-02-16T14:20:31.888Z,101485.97
2023-02-16T14:32:05.347Z,101480.31
2023-02-16T14:36:08.169Z,101477.81
2023-02-16T14:39:39.243Z,101475.84
2023-02-16T14:43:41.942Z,101476.97
2023-02-16T14:47:36.442Z,101470.25
2023-02-16T14:51:53.687Z,101469.47
2023-02-16T14:56:01.574Z,101471.13
2023-02-16T15:00:01.846Z,101472.12
2023-02-16T16:01:34.040Z,101463.13
2023-02-16T16:05:33.251Z,101461.97
2023-02-16T16:09:35.673Z,101461.78
2023-02-16T16:21:05.044Z,101459.28
2023-02-16T16:24:52.167Z,101463.87
2023-02-16T16:28:37.945Z,101456.78
2023-02-16T16:32:31.819Z,101466.88
2023-02-16T16:36:48.936Z,101461.47
2023-02-16T16:44:49.797Z,101465.59
2023-02-16T16:48:55.299Z,101471.81
2023-02-16T17:11:52.105Z,101471.94
2023-02-16T18:41:37.226Z,101482.09
2023-02-16T18:52:27.877Z,101484.06
2023-02-16T18:56:13.841Z,101487.06
2023-02-16T18:59:20.895Z,101486.38
2023-02-16T19:02:27.535Z,101484.59
2023-02-16T19:05:33.906Z,101487.22
2023-02-16T19:08:37.668Z,101483.44
2023-02-16T19:11:44.276Z,101483.25
2023-02-16T19:14:50.135Z,101486.00
2023-02-16T19:18:15.625Z,101489.28
2023-02-16T19:21:26.277Z,101482.78
2023-02-16T19:25:12.554Z,101485.75
2023-02-16T19:28:37.360Z,101474.28
2023-02-16T19:31:42.973Z,101478.69
2023-02-16T19:34:49.222Z,101471.72
2023-02-16T19:37:53.701Z,101473.91
2023-02-16T19:40:59.548Z,101475.91
2023-02-16T19:44:08.052Z,101481.47
2023-02-16T19:47:12.030Z,101472.03
2023-02-16T19:50:19.086Z,101475.13
2023-02-16T19:53:24.308Z,101481.41
2023-02-16T19:56:30.341Z,101487.97
2023-02-16T19:59:35.044Z,101481.50
2023-02-16T20:02:42.237Z,101484.09
2023-02-16T20:05:45.806Z,101484.78
2023-02-16T20:08:52.915Z,101481.00
2023-02-16T20:11:56.596Z,101486.88
2023-02-16T20:15:01.236Z,101486.66
2023-02-16T20:18:12.747Z,101487.69
2023-02-16T20:21:26.040Z,101488.31
2023-02-16T20:24:35.661Z,101495.41
2023-02-16T20:27:44.544Z,101488.31
2023-02-16T20:30:55.325Z,101492.56
2023-02-16T20:34:21.548Z,101496.62
2023-02-16T20:37:55.032Z,101490.87
2023-02-16T20:41:00.857Z,101498.44
2023-02-16T20:44:05.351Z,101495.19
2023-02-16T20:47:11.807Z,101493.25
2023-02-16T20:50:16.076Z,101493.56
2023-02-16T20:53:22.742Z,101490.28
2023-02-16T20:56:28.196Z,101491.56
2023-02-16T21:00:16.534Z,101487.31
2023-02-16T21:03:41.310Z,101478.19
2023-02-16T21:06:44.341Z,101480.50
2023-02-16T21:09:50.312Z,101481.81
2023-02-16T21:12:54.132Z,101472.19
2023-02-16T21:15:58.620Z,101475.62
2023-02-16T21:19:09.290Z,101471.66
2023-02-16T21:22:42.752Z,101471.13
2023-02-16T21:25:46.328Z,101462.00
2023-02-16T21:28:51.047Z,101471.72
2023-02-16T21:32:15.224Z,101473.78
2023-02-16T21:35:18.821Z,101475.78
2023-02-16T21:38:25.846Z,101470.25
2023-02-16T21:41:30.664Z,101467.00
2023-02-16T21:44:43.172Z,101464.37
2023-02-16T21:48:06.227Z,101467.16
2023-02-16T21:51:09.817Z,101467.69
2023-02-16T21:54:49.994Z,101469.47
2023-02-16T21:58:00.113Z,101465.44
2023-02-16T22:01:03.219Z,101465.16
2023-02-16T22:04:06.446Z,101472.28
2023-02-16T22:07:31.563Z,101461.91
2023-02-16T22:10:37.869Z,101467.13
2023-02-16T22:13:40.885Z,101459.97
2023-02-16T22:16:48.464Z,101453.63
2023-02-16T22:19:54.680Z,101467.47
2023-02-16T22:22:59.621Z,101463.41
2023-02-16T22:26:03.115Z,101462.94
2023-02-16T22:29:08.368Z,101455.75
2023-02-16T22:32:14.363Z,101454.94
2023-02-16T22:35:18.010Z,101451.16
2023-02-16T22:38:20.983Z,101453.78
2023-02-16T22:41:26.815Z,101445.62
2023-02-16T22:44:33.879Z,101451.31
2023-02-16T22:47:39.081Z,101443.63
2023-02-16T22:50:45.229Z,101434.81
2023-02-16T22:53:51.511Z,101436.06
2023-02-16T22:56:54.368Z,101437.66
2023-02-16T22:59:57.595Z,101424.94
2023-02-16T23:03:00.212Z,101432.38
2023-02-16T23:06:22.697Z,101434.69
2023-02-16T23:09:27.818Z,101431.03
2023-02-16T23:12:31.469Z,101430.31
2023-02-16T23:15:41.425Z,101435.12
2023-02-16T23:18:45.721Z,101436.03
2023-02-16T23:21:58.196Z,101429.50
2023-02-16T23:25:23.222Z,101424.41
2023-02-16T23:28:31.450Z,101427.47
2023-02-16T23:31:36.682Z,101430.13
2023-02-16T23:34:41.082Z,101429.91
2023-02-16T23:37:49.771Z,101428.78
2023-02-16T23:41:04.066Z,101420.63
2023-02-16T23:44:08.511Z,101424.31
2023-02-16T23:47:13.112Z,101429.78
2023-02-16T23:50:16.595Z,101429.00
2023-02-16T23:53:19.881Z,101435.28
2023-02-16T23:56:46.929Z,101436.50
2023-02-16T23:59:54.619Z,101437.88
